sensor_id;sensor_type;location;lat;lon;timestamp;temperature;humidity
42245;DHT22;27912;51.828;5.688;2022-12-18T00:01:28;-5.10;99.90
42245;DHT22;27912;51.828;5.688;2022-12-18T00:03:55;-5.20;99.90
42245;DHT22;27912;51.828;5.688;2022-12-18T00:06:21;-5.20;99.90
42245;DHT22;27912;51.828;5.688;2022-12-18T00:08:48;-5.30;99.90
42245;DHT22;27912;51.828;5.688;2022-12-18T00:11:19;-5.30;99.90
42245;DHT22;27912;51.828;5.688;2022-12-18T00:13:46;-5.40;99.90
42245;DHT22;27912;51.828;5.688;2022-12-18T00:16:14;-5.40;99.90
42245;DHT22;27912;51.828;5.688;2022-12-18T00:18:40;-5.50;99.90
42245;DHT22;27912;51.828;5.688;2022-12-18T00:21:08;-5.50;99.90
42245;DHT22;27912;51.828;5.688;2022-12-18T00:23:35;-5.50;99.90
42245;DHT22;27912;51.828;5.688;2022-12-18T00:26:02;-5.50;99.90
42245;DHT22;27912;51.828;5.688;2022-12-18T00:28:28;-5.50;99.90
42245;DHT22;27912;51.828;5.688;2022-12-18T00:31:14;-5.50;99.90
42245;DHT22;27912;51.828;5.688;2022-12-18T00:33:40;-5.50;99.90
42245;DHT22;27912;51.828;5.688;2022-12-18T00:36:20;-5.50;99.90
42245;DHT22;27912;51.828;5.688;2022-12-18T00:38:47;-5.50;99.90
42245;DHT22;27912;51.828;5.688;2022-12-18T00:41:14;-5.50;99.90
42245;DHT22;27912;51.828;5.688;2022-12-18T00:44:00;-5.50;99.90
42245;DHT22;27912;51.828;5.688;2022-12-18T00:46:26;-5.50;99.90
42245;DHT22;27912;51.828;5.688;2022-12-18T00:48:51;-5.50;99.90
42245;DHT22;27912;51.828;5.688;2022-12-18T00:51:17;-5.60;99.90
42245;DHT22;27912;51.828;5.688;2022-12-18T00:53:42;-5.60;99.90
42245;DHT22;27912;51.828;5.688;2022-12-18T00:56:08;-5.60;99.90
42245;DHT22;27912;51.828;5.688;2022-12-18T00:58:33;-5.60;99.90
42245;DHT22;27912;51.828;5.688;2022-12-18T01:01:00;-5.50;99.90
42245;DHT22;27912;51.828;5.688;2022-12-18T01:03:25;-5.60;99.90
42245;DHT22;27912;51.828;5.688;2022-12-18T01:05:51;-5.50;99.90
42245;DHT22;27912;51.828;5.688;2022-12-18T01:08:16;-5.60;99.90
42245;DHT22;27912;51.828;5.688;2022-12-18T01:10:42;-5.60;99.90
42245;DHT22;27912;51.828;5.688;2022-12-18T01:13:08;-5.60;99.90
42245;DHT22;27912;51.828;5.688;2022-12-18T01:15:33;-5.60;99.90
42245;DHT22;27912;51.828;5.688;2022-12-18T01:17:59;-5.60;99.90
42245;DHT22;27912;51.828;5.688;2022-12-18T01:20:24;-5.60;99.90
42245;DHT22;27912;51.828;5.688;2022-12-18T01:22:50;-5.60;99.90
42245;DHT22;27912;51.828;5.688;2022-12-18T01:25:16;-5.60;99.90
42245;DHT22;27912;51.828;5.688;2022-12-18T01:27:41;-5.60;99.90
42245;DHT22;27912;51.828;5.688;2022-12-18T01:30:07;-5.70;99.90
42245;DHT22;27912;51.828;5.688;2022-12-18T01:32:33;-5.70;99.90
42245;DHT22;27912;51.828;5.688;2022-12-18T01:34:59;-5.70;99.90
42245;DHT22;27912;51.828;5.688;2022-12-18T01:37:24;-5.60;99.90
42245;DHT22;27912;51.828;5.688;2022-12-18T01:39:50;-5.60;99.90
42245;DHT22;27912;51.828;5.688;2022-12-18T01:42:17;-5.60;99.90
42245;DHT22;27912;51.828;5.688;2022-12-18T01:45:06;-5.60;99.90
42245;DHT22;27912;51.828;5.688;2022-12-18T01:47:36;-5.60;99.90
42245;DHT22;27912;51.828;5.688;2022-12-18T01:50:22;-5.60;99.90
42245;DHT22;27912;51.828;5.688;2022-12-18T01:53:02;-5.60;99.90
42245;DHT22;27912;51.828;5.688;2022-12-18T01:55:32;-5.60;99.90
42245;DHT22;27912;51.828;5.688;2022-12-18T01:58:00;-5.60;99.90
42245;DHT22;27912;51.828;5.688;2022-12-18T02:00:27;-5.60;99.90
42245;DHT22;27912;51.828;5.688;2022-12-18T02:02:53;-5.60;99.90
42245;DHT22;27912;51.828;5.688;2022-12-18T02:05:27;-5.60;99.90
42245;DHT22;27912;51.828;5.688;2022-12-18T02:14:00;-5.60;99.90
42245;DHT22;27912;51.828;5.688;2022-12-18T02:16:24;-5.60;99.90
42245;DHT22;27912;51.828;5.688;2022-12-18T02:18:58;-5.60;99.90
42245;DHT22;27912;51.828;5.688;2022-12-18T02:22:17;-5.60;99.90
42245;DHT22;27912;51.828;5.688;2022-12-18T02:24:46;-5.60;99.90
42245;DHT22;27912;51.828;5.688;2022-12-18T02:27:15;-5.50;99.90
42245;DHT22;27912;51.828;5.688;2022-12-18T02:29:52;-5.50;99.90
42245;DHT22;27912;51.828;5.688;2022-12-18T02:32:24;-5.50;99.90
42245;DHT22;27912;51.828;5.688;2022-12-18T02:34:51;-5.50;99.90
42245;DHT22;27912;51.828;5.688;2022-12-18T02:37:18;-5.50;99.90
42245;DHT22;27912;51.828;5.688;2022-12-18T02:39:47;-5.60;99.90
42245;DHT22;27912;51.828;5.688;2022-12-18T02:42:13;-5.50;99.90
42245;DHT22;27912;51.828;5.688;2022-12-18T02:44:47;-5.60;99.90
42245;DHT22;27912;51.828;5.688;2022-12-18T02:47:15;-5.60;99.90
42245;DHT22;27912;51.828;5.688;2022-12-18T02:55:35;-5.60;99.90
42245;DHT22;27912;51.828;5.688;2022-12-18T03:00:51;-5.70;99.90
42245;DHT22;27912;51.828;5.688;2022-12-18T03:04:09;-5.70;99.90
42245;DHT22;27912;51.828;5.688;2022-12-18T03:06:18;-5.70;99.90
42245;DHT22;27912;51.828;5.688;2022-12-18T03:08:52;-5.80;99.90
42245;DHT22;27912;51.828;5.688;2022-12-18T03:11:19;-5.80;99.90
42245;DHT22;27912;51.828;5.688;2022-12-18T03:14:07;-5.80;99.90
42245;DHT22;27912;51.828;5.688;2022-12-18T03:16:34;-5.90;99.90
42245;DHT22;27912;51.828;5.688;2022-12-18T03:19:08;-5.90;99.90
42245;DHT22;27912;51.828;5.688;2022-12-18T03:21:40;-5.90;99.90
42245;DHT22;27912;51.828;5.688;2022-12-18T03:24:08;-5.90;99.90
42245;DHT22;27912;51.828;5.688;2022-12-18T03:26:35;-5.90;99.90
42245;DHT22;27912;51.828;5.688;2022-12-18T03:29:07;-5.90;99.90
42245;DHT22;27912;51.828;5.688;2022-12-18T03:31:34;-5.90;99.90
42245;DHT22;27912;51.828;5.688;2022-12-18T03:34:03;-6.00;99.90
42245;DHT22;27912;51.828;5.688;2022-12-18T03:36:31;-6.00;99.90
42245;DHT22;27912;51.828;5.688;2022-12-18T03:38:57;-6.00;99.90
42245;DHT22;27912;51.828;5.688;2022-12-18T03:41:32;-6.00;99.90
42245;DHT22;27912;51.828;5.688;2022-12-18T03:46:41;-6.10;99.90
42245;DHT22;27912;51.828;5.688;2022-12-18T03:49:12;-6.00;99.90
42245;DHT22;27912;51.828;5.688;2022-12-18T03:51:53;-6.00;99.90
42245;DHT22;27912;51.828;5.688;2022-12-18T03:54:20;-6.10;99.90
42245;DHT22;27912;51.828;5.688;2022-12-18T03:56:51;-6.00;99.90
42245;DHT22;27912;51.828;5.688;2022-12-18T03:59:19;-6.00;99.90
42245;DHT22;27912;51.828;5.688;2022-12-18T04:01:49;-5.90;99.90
42245;DHT22;27912;51.828;5.688;2022-12-18T04:04:17;-5.90;99.90
42245;DHT22;27912;51.828;5.688;2022-12-18T04:06:45;-5.90;99.90
42245;DHT22;27912;51.828;5.688;2022-12-18T04:09:13;-5.80;99.90
42245;DHT22;27912;51.828;5.688;2022-12-18T04:11:40;-5.90;99.90
42245;DHT22;27912;51.828;5.688;2022-12-18T04:14:06;-5.80;99.90
42245;DHT22;27912;51.828;5.688;2022-12-18T04:16:31;-5.80;99.90
42245;DHT22;27912;51.828;5.688;2022-12-18T04:18:57;-5.80;99.90
42245;DHT22;27912;51.828;5.688;2022-12-18T04:21:22;-5.80;99.90
42245;DHT22;27912;51.828;5.688;2022-12-18T04:23:48;-5.80;99.90
42245;DHT22;27912;51.828;5.688;2022-12-18T04:26:14;-5.80;99.90
42245;DHT22;27912;51.828;5.688;2022-12-18T04:28:39;-5.70;99.90
42245;DHT22;27912;51.828;5.688;2022-12-18T04:31:05;-5.70;99.90
42245;DHT22;27912;51.828;5.688;2022-12-18T04:33:30;-5.70;99.90
42245;DHT22;27912;51.828;5.688;2022-12-18T04:35:56;-5.70;99.90
42245;DHT22;27912;51.828;5.688;2022-12-18T04:38:21;-5.70;99.90
42245;DHT22;27912;51.828;5.688;2022-12-18T04:40:48;-5.70;99.90
42245;DHT22;27912;51.828;5.688;2022-12-18T04:43:13;-5.60;99.90
42245;DHT22;27912;51.828;5.688;2022-12-18T04:45:39;-5.60;99.90
42245;DHT22;27912;51.828;5.688;2022-12-18T04:48:05;-5.60;99.90
42245;DHT22;27912;51.828;5.688;2022-12-18T04:50:30;-5.60;99.90
42245;DHT22;27912;51.828;5.688;2022-12-18T04:52:56;-5.50;99.90
42245;DHT22;27912;51.828;5.688;2022-12-18T04:55:25;-5.50;99.90
42245;DHT22;27912;51.828;5.688;2022-12-18T04:57:51;-5.60;99.90
42245;DHT22;27912;51.828;5.688;2022-12-18T05:00:17;-5.60;99.90
42245;DHT22;27912;51.828;5.688;2022-12-18T05:02:42;-5.60;99.90
42245;DHT22;27912;51.828;5.688;2022-12-18T05:05:08;-5.60;99.90
42245;DHT22;27912;51.828;5.688;2022-12-18T05:07:34;-5.60;99.90
42245;DHT22;27912;51.828;5.688;2022-12-18T05:09:59;-5.60;99.90
42245;DHT22;27912;51.828;5.688;2022-12-18T05:12:25;-5.60;99.90
42245;DHT22;27912;51.828;5.688;2022-12-18T05:14:50;-5.70;99.90
42245;DHT22;27912;51.828;5.688;2022-12-18T05:17:16;-5.70;99.90
42245;DHT22;27912;51.828;5.688;2022-12-18T05:19:41;-5.70;99.90
42245;DHT22;27912;51.828;5.688;2022-12-18T05:22:07;-5.70;99.90
42245;DHT22;27912;51.828;5.688;2022-12-18T05:24:33;-5.70;99.90
42245;DHT22;27912;51.828;5.688;2022-12-18T05:26:59;-5.70;99.90
42245;DHT22;27912;51.828;5.688;2022-12-18T05:29:24;-5.70;99.90
42245;DHT22;27912;51.828;5.688;2022-12-18T05:31:50;-5.70;99.90
42245;DHT22;27912;51.828;5.688;2022-12-18T05:34:16;-5.70;99.90
42245;DHT22;27912;51.828;5.688;2022-12-18T05:36:42;-5.80;99.90
42245;DHT22;27912;51.828;5.688;2022-12-18T05:39:07;-5.80;99.90
42245;DHT22;27912;51.828;5.688;2022-12-18T05:41:33;-5.80;99.90
42245;DHT22;27912;51.828;5.688;2022-12-18T05:43:59;-5.80;99.90
42245;DHT22;27912;51.828;5.688;2022-12-18T05:46:24;-5.80;99.90
42245;DHT22;27912;51.828;5.688;2022-12-18T05:48:50;-5.80;99.90
42245;DHT22;27912;51.828;5.688;2022-12-18T05:51:18;-5.70;99.90
42245;DHT22;27912;51.828;5.688;2022-12-18T05:53:45;-5.70;99.90
42245;DHT22;27912;51.828;5.688;2022-12-18T05:56:16;-5.70;99.90
42245;DHT22;27912;51.828;5.688;2022-12-18T05:58:42;-5.70;99.90
42245;DHT22;27912;51.828;5.688;2022-12-18T06:01:15;-5.70;99.90
42245;DHT22;27912;51.828;5.688;2022-12-18T06:03:41;-5.70;99.90
42245;DHT22;27912;51.828;5.688;2022-12-18T06:06:18;-5.70;99.90
42245;DHT22;27912;51.828;5.688;2022-12-18T06:08:44;-5.60;99.90
42245;DHT22;27912;51.828;5.688;2022-12-18T06:11:10;-5.60;99.90
42245;DHT22;27912;51.828;5.688;2022-12-18T06:13:36;-5.60;99.90
42245;DHT22;27912;51.828;5.688;2022-12-18T06:16:05;-5.50;99.90
42245;DHT22;27912;51.828;5.688;2022-12-18T06:18:31;-5.50;99.90
42245;DHT22;27912;51.828;5.688;2022-12-18T06:20:58;-5.50;99.90
42245;DHT22;27912;51.828;5.688;2022-12-18T06:23:24;-5.40;99.90
42245;DHT22;27912;51.828;5.688;2022-12-18T06:25:50;-5.50;99.90
42245;DHT22;27912;51.828;5.688;2022-12-18T06:28:16;-5.50;99.90
42245;DHT22;27912;51.828;5.688;2022-12-18T06:30:45;-5.50;99.90
42245;DHT22;27912;51.828;5.688;2022-12-18T06:33:11;-5.50;99.90
42245;DHT22;27912;51.828;5.688;2022-12-18T06:35:36;-5.40;99.90
42245;DHT22;27912;51.828;5.688;2022-12-18T06:38:02;-5.40;99.90
42245;DHT22;27912;51.828;5.688;2022-12-18T06:40:28;-5.30;99.90
42245;DHT22;27912;51.828;5.688;2022-12-18T06:42:54;-5.20;99.90
42245;DHT22;27912;51.828;5.688;2022-12-18T06:45:20;-5.20;99.90
42245;DHT22;27912;51.828;5.688;2022-12-18T06:47:45;-5.20;99.90
42245;DHT22;27912;51.828;5.688;2022-12-18T06:50:12;-5.20;99.90
42245;DHT22;27912;51.828;5.688;2022-12-18T06:52:37;-5.10;99.90
42245;DHT22;27912;51.828;5.688;2022-12-18T06:55:05;-5.10;99.90
42245;DHT22;27912;51.828;5.688;2022-12-18T06:57:30;-5.00;99.90
42245;DHT22;27912;51.828;5.688;2022-12-18T06:59:56;-5.00;99.90
42245;DHT22;27912;51.828;5.688;2022-12-18T07:02:21;-5.00;99.90
42245;DHT22;27912;51.828;5.688;2022-12-18T07:04:47;-5.00;99.90
42245;DHT22;27912;51.828;5.688;2022-12-18T07:07:12;-4.90;99.90
42245;DHT22;27912;51.828;5.688;2022-12-18T07:09:38;-4.90;99.90
42245;DHT22;27912;51.828;5.688;2022-12-18T07:12:03;-4.90;99.90
42245;DHT22;27912;51.828;5.688;2022-12-18T07:14:30;-4.90;99.90
42245;DHT22;27912;51.828;5.688;2022-12-18T07:16:55;-4.90;99.90
42245;DHT22;27912;51.828;5.688;2022-12-18T07:19:21;-4.90;99.90
42245;DHT22;27912;51.828;5.688;2022-12-18T07:21:50;-4.80;99.90
42245;DHT22;27912;51.828;5.688;2022-12-18T07:24:16;-4.80;99.90
42245;DHT22;27912;51.828;5.688;2022-12-18T07:26:41;-4.80;99.90
42245;DHT22;27912;51.828;5.688;2022-12-18T07:29:07;-4.80;99.90
42245;DHT22;27912;51.828;5.688;2022-12-18T07:31:33;-4.80;99.90
42245;DHT22;27912;51.828;5.688;2022-12-18T07:33:58;-4.80;99.90
42245;DHT22;27912;51.828;5.688;2022-12-18T07:36:24;-4.80;99.90
42245;DHT22;27912;51.828;5.688;2022-12-18T07:38:50;-4.70;99.90
42245;DHT22;27912;51.828;5.688;2022-12-18T07:41:17;-4.70;99.90
42245;DHT22;27912;51.828;5.688;2022-12-18T07:43:44;-4.70;99.90
42245;DHT22;27912;51.828;5.688;2022-12-18T07:46:11;-4.70;99.90
42245;DHT22;27912;51.828;5.688;2022-12-18T07:48:42;-4.60;99.90
42245;DHT22;27912;51.828;5.688;2022-12-18T07:51:09;-4.60;99.90
42245;DHT22;27912;51.828;5.688;2022-12-18T07:53:35;-4.60;99.90
42245;DHT22;27912;51.828;5.688;2022-12-18T07:56:04;-4.60;99.90
42245;DHT22;27912;51.828;5.688;2022-12-18T07:58:30;-4.50;99.90
42245;DHT22;27912;51.828;5.688;2022-12-18T08:01:11;-4.50;99.90
42245;DHT22;27912;51.828;5.688;2022-12-18T08:03:38;-4.50;99.90
42245;DHT22;27912;51.828;5.688;2022-12-18T08:06:06;-4.40;99.90
42245;DHT22;27912;51.828;5.688;2022-12-18T08:08:33;-4.30;99.90
42245;DHT22;27912;51.828;5.688;2022-12-18T08:10:59;-4.30;99.90
42245;DHT22;27912;51.828;5.688;2022-12-18T08:13:25;-4.30;99.90
42245;DHT22;27912;51.828;5.688;2022-12-18T08:15:59;-4.20;99.90
42245;DHT22;27912;51.828;5.688;2022-12-18T08:18:25;-4.20;99.90
42245;DHT22;27912;51.828;5.688;2022-12-18T08:20:50;-4.10;99.90
42245;DHT22;27912;51.828;5.688;2022-12-18T08:23:16;-4.10;99.90
42245;DHT22;27912;51.828;5.688;2022-12-18T08:25:42;-4.00;99.90
42245;DHT22;27912;51.828;5.688;2022-12-18T08:28:07;-3.90;99.90
42245;DHT22;27912;51.828;5.688;2022-12-18T08:30:33;-3.90;99.90
42245;DHT22;27912;51.828;5.688;2022-12-18T08:32:58;-3.80;99.90
42245;DHT22;27912;51.828;5.688;2022-12-18T08:35:24;-3.70;99.90
42245;DHT22;27912;51.828;5.688;2022-12-18T08:37:50;-3.70;99.90
42245;DHT22;27912;51.828;5.688;2022-12-18T08:40:16;-3.60;99.90
42245;DHT22;27912;51.828;5.688;2022-12-18T08:42:41;-3.60;99.90
42245;DHT22;27912;51.828;5.688;2022-12-18T08:45:26;-3.50;99.90
42245;DHT22;27912;51.828;5.688;2022-12-18T08:47:52;-3.50;99.90
42245;DHT22;27912;51.828;5.688;2022-12-18T08:50:17;-3.50;99.90
42245;DHT22;27912;51.828;5.688;2022-12-18T08:52:43;-3.40;99.90
42245;DHT22;27912;51.828;5.688;2022-12-18T08:55:09;-3.40;99.90
42245;DHT22;27912;51.828;5.688;2022-12-18T08:57:34;-3.40;99.90
42245;DHT22;27912;51.828;5.688;2022-12-18T09:00:00;-3.30;99.90
42245;DHT22;27912;51.828;5.688;2022-12-18T09:02:25;-3.30;99.90
42245;DHT22;27912;51.828;5.688;2022-12-18T09:04:51;-3.20;99.90
42245;DHT22;27912;51.828;5.688;2022-12-18T09:07:17;-3.20;99.90
42245;DHT22;27912;51.828;5.688;2022-12-18T09:09:42;-3.10;99.90
42245;DHT22;27912;51.828;5.688;2022-12-18T09:12:08;-3.00;99.90
42245;DHT22;27912;51.828;5.688;2022-12-18T09:14:34;-3.00;99.90
42245;DHT22;27912;51.828;5.688;2022-12-18T09:16:59;-2.90;99.90
42245;DHT22;27912;51.828;5.688;2022-12-18T09:19:25;-2.90;99.90
42245;DHT22;27912;51.828;5.688;2022-12-18T09:21:50;-2.90;99.90
42245;DHT22;27912;51.828;5.688;2022-12-18T09:24:17;-2.80;99.90
42245;DHT22;27912;51.828;5.688;2022-12-18T09:26:42;-2.80;99.90
42245;DHT22;27912;51.828;5.688;2022-12-18T09:29:08;-2.70;99.90
42245;DHT22;27912;51.828;5.688;2022-12-18T09:31:35;-2.70;99.90
42245;DHT22;27912;51.828;5.688;2022-12-18T09:34:01;-2.60;99.90
42245;DHT22;27912;51.828;5.688;2022-12-18T09:36:27;-2.50;99.90
42245;DHT22;27912;51.828;5.688;2022-12-18T09:38:53;-2.50;99.90
42245;DHT22;27912;51.828;5.688;2022-12-18T09:41:53;-2.40;99.90
42245;DHT22;27912;51.828;5.688;2022-12-18T09:44:41;-2.40;99.90
42245;DHT22;27912;51.828;5.688;2022-12-18T09:49:52;-2.30;99.90
42245;DHT22;27912;51.828;5.688;2022-12-18T09:52:37;-2.20;99.90
42245;DHT22;27912;51.828;5.688;2022-12-18T09:55:22;-2.20;99.90
42245;DHT22;27912;51.828;5.688;2022-12-18T09:57:53;-2.10;99.90
42245;DHT22;27912;51.828;5.688;2022-12-18T10:00:23;-2.00;99.90
42245;DHT22;27912;51.828;5.688;2022-12-18T10:02:56;-2.00;99.90
42245;DHT22;27912;51.828;5.688;2022-12-18T10:11:34;-1.90;99.90
42245;DHT22;27912;51.828;5.688;2022-12-18T10:19:34;-1.70;99.90
42245;DHT22;27912;51.828;5.688;2022-12-18T10:22:54;-1.70;99.90
42245;DHT22;27912;51.828;5.688;2022-12-18T10:25:38;-1.50;99.90
42245;DHT22;27912;51.828;5.688;2022-12-18T10:28:13;-1.50;99.90
42245;DHT22;27912;51.828;5.688;2022-12-18T10:30:41;-1.50;99.90
42245;DHT22;27912;51.828;5.688;2022-12-18T10:33:16;-1.40;99.90
42245;DHT22;27912;51.828;5.688;2022-12-18T10:35:42;-1.40;99.90
42245;DHT22;27912;51.828;5.688;2022-12-18T10:41:08;-1.30;99.90
42245;DHT22;27912;51.828;5.688;2022-12-18T10:44:20;-1.20;99.90
42245;DHT22;27912;51.828;5.688;2022-12-18T10:46:53;-1.20;99.90
42245;DHT22;27912;51.828;5.688;2022-12-18T10:49:29;-1.20;99.90
42245;DHT22;27912;51.828;5.688;2022-12-18T10:52:15;-1.10;99.90
42245;DHT22;27912;51.828;5.688;2022-12-18T10:54:52;-1.10;99.90
42245;DHT22;27912;51.828;5.688;2022-12-18T10:57:30;-1.00;99.90
42245;DHT22;27912;51.828;5.688;2022-12-18T10:59:58;-1.00;99.90
42245;DHT22;27912;51.828;5.688;2022-12-18T11:04:52;-0.90;99.90
42245;DHT22;27912;51.828;5.688;2022-12-18T11:07:18;-0.90;99.90
42245;DHT22;27912;51.828;5.688;2022-12-18T11:09:43;-0.80;99.90
42245;DHT22;27912;51.828;5.688;2022-12-18T11:12:24;-0.80;99.90
42245;DHT22;27912;51.828;5.688;2022-12-18T11:14:52;-0.70;99.90
42245;DHT22;27912;51.828;5.688;2022-12-18T11:17:29;-0.70;99.90
42245;DHT22;27912;51.828;5.688;2022-12-18T11:19:59;-0.60;99.90
42245;DHT22;27912;51.828;5.688;2022-12-18T11:24:58;-0.50;99.90
42245;DHT22;27912;51.828;5.688;2022-12-18T11:27:24;-0.40;99.90
42245;DHT22;27912;51.828;5.688;2022-12-18T11:29:50;-0.40;99.90
42245;DHT22;27912;51.828;5.688;2022-12-18T11:32:46;-0.30;99.90
42245;DHT22;27912;51.828;5.688;2022-12-18T11:35:42;-0.30;99.90
42245;DHT22;27912;51.828;5.688;2022-12-18T11:38:28;-0.30;99.90
42245;DHT22;27912;51.828;5.688;2022-12-18T11:41:20;-0.30;99.90
42245;DHT22;27912;51.828;5.688;2022-12-18T11:43:58;-0.20;99.90
42245;DHT22;27912;51.828;5.688;2022-12-18T11:46:31;-0.20;99.90
42245;DHT22;27912;51.828;5.688;2022-12-18T11:49:03;-0.20;99.90
42245;DHT22;27912;51.828;5.688;2022-12-18T11:52:04;-0.10;99.90
42245;DHT22;27912;51.828;5.688;2022-12-18T11:54:33;-0.10;99.90
42245;DHT22;27912;51.828;5.688;2022-12-18T11:59:55;-0.10;99.90
42245;DHT22;27912;51.828;5.688;2022-12-18T12:03:14;0.00;99.90
42245;DHT22;27912;51.828;5.688;2022-12-18T12:05:32;0.00;99.90
42245;DHT22;27912;51.828;5.688;2022-12-18T12:08:18;0.00;99.90
42245;DHT22;27912;51.828;5.688;2022-12-18T12:11:09;0.10;99.90
42245;DHT22;27912;51.828;5.688;2022-12-18T12:14:07;0.10;99.90
42245;DHT22;27912;51.828;5.688;2022-12-18T12:16:49;0.10;99.90
42245;DHT22;27912;51.828;5.688;2022-12-18T12:19:22;0.10;99.90
42245;DHT22;27912;51.828;5.688;2022-12-18T12:24:36;0.10;99.90
42245;DHT22;27912;51.828;5.688;2022-12-18T12:30:06;0.20;99.90
42245;DHT22;27912;51.828;5.688;2022-12-18T12:35:29;0.20;99.90
42245;DHT22;27912;51.828;5.688;2022-12-18T12:38:16;0.20;99.90
42245;DHT22;27912;51.828;5.688;2022-12-18T12:43:35;0.30;99.90
42245;DHT22;27912;51.828;5.688;2022-12-18T12:46:13;0.30;99.90
42245;DHT22;27912;51.828;5.688;2022-12-18T12:51:36;0.30;99.90
42245;DHT22;27912;51.828;5.688;2022-12-18T12:54:05;0.40;99.90
42245;DHT22;27912;51.828;5.688;2022-12-18T12:56:43;0.40;99.90
42245;DHT22;27912;51.828;5.688;2022-12-18T12:59:22;0.40;99.90
42245;DHT22;27912;51.828;5.688;2022-12-18T13:02:16;0.40;99.90
42245;DHT22;27912;51.828;5.688;2022-12-18T13:07:56;0.40;99.90
42245;DHT22;27912;51.828;5.688;2022-12-18T13:10:38;0.40;99.90
42245;DHT22;27912;51.828;5.688;2022-12-18T13:13:12;0.40;99.90
42245;DHT22;27912;51.828;5.688;2022-12-18T13:23:29;0.40;99.90
42245;DHT22;27912;51.828;5.688;2022-12-18T13:31:02;0.40;99.90
42245;DHT22;27912;51.828;5.688;2022-12-18T13:36:09;0.40;99.90
42245;DHT22;27912;51.828;5.688;2022-12-18T13:38:37;0.40;99.90
42245;DHT22;27912;51.828;5.688;2022-12-18T13:41:25;0.40;99.90
42245;DHT22;27912;51.828;5.688;2022-12-18T13:44:24;0.40;99.90
42245;DHT22;27912;51.828;5.688;2022-12-18T13:46:51;0.50;99.90
42245;DHT22;27912;51.828;5.688;2022-12-18T13:49:30;0.40;99.90
42245;DHT22;27912;51.828;5.688;2022-12-18T13:51:57;0.40;99.90
42245;DHT22;27912;51.828;5.688;2022-12-18T13:54:40;0.40;99.90
42245;DHT22;27912;51.828;5.688;2022-12-18T13:57:28;0.40;99.90
42245;DHT22;27912;51.828;5.688;2022-12-18T13:59:55;0.40;99.90
42245;DHT22;27912;51.828;5.688;2022-12-18T14:02:27;0.30;99.90
42245;DHT22;27912;51.828;5.688;2022-12-18T14:04:53;0.40;99.90
42245;DHT22;27912;51.828;5.688;2022-12-18T14:07:23;0.30;99.90
42245;DHT22;27912;51.828;5.688;2022-12-18T14:09:59;0.40;99.90
42245;DHT22;27912;51.828;5.688;2022-12-18T14:12:31;0.40;99.90
42245;DHT22;27912;51.828;5.688;2022-12-18T14:17:55;0.40;99.90
42245;DHT22;27912;51.828;5.688;2022-12-18T14:20:22;0.40;99.90
42245;DHT22;27912;51.828;5.688;2022-12-18T14:22:49;0.30;99.90
42245;DHT22;27912;51.828;5.688;2022-12-18T14:25:22;0.30;99.90
42245;DHT22;27912;51.828;5.688;2022-12-18T14:27:51;0.40;99.90
42245;DHT22;27912;51.828;5.688;2022-12-18T14:30:32;0.40;99.90
42245;DHT22;27912;51.828;5.688;2022-12-18T14:33:06;0.40;99.90
42245;DHT22;27912;51.828;5.688;2022-12-18T14:35:40;0.40;99.90
42245;DHT22;27912;51.828;5.688;2022-12-18T14:38:24;0.40;99.90
42245;DHT22;27912;51.828;5.688;2022-12-18T14:41:01;0.30;99.90
42245;DHT22;27912;51.828;5.688;2022-12-18T14:43:31;0.40;99.90
42245;DHT22;27912;51.828;5.688;2022-12-18T14:45:57;0.30;99.90
42245;DHT22;27912;51.828;5.688;2022-12-18T14:53:39;0.30;99.90
42245;DHT22;27912;51.828;5.688;2022-12-18T14:58:56;0.30;99.90
42245;DHT22;27912;51.828;5.688;2022-12-18T15:03:55;0.20;99.90
42245;DHT22;27912;51.828;5.688;2022-12-18T15:08:54;0.20;99.90
42245;DHT22;27912;51.828;5.688;2022-12-18T15:11:44;0.20;99.90
42245;DHT22;27912;51.828;5.688;2022-12-18T15:14:38;0.30;99.90
42245;DHT22;27912;51.828;5.688;2022-12-18T15:17:17;0.20;99.90
42245;DHT22;27912;51.828;5.688;2022-12-18T15:19:43;0.20;99.90
42245;DHT22;27912;51.828;5.688;2022-12-18T15:22:20;0.20;99.90
42245;DHT22;27912;51.828;5.688;2022-12-18T15:24:45;0.20;99.90
42245;DHT22;27912;51.828;5.688;2022-12-18T15:27:45;0.20;99.90
42245;DHT22;27912;51.828;5.688;2022-12-18T15:30:19;0.20;99.90
42245;DHT22;27912;51.828;5.688;2022-12-18T15:32:45;0.20;99.90
42245;DHT22;27912;51.828;5.688;2022-12-18T15:37:37;0.20;99.90
42245;DHT22;27912;51.828;5.688;2022-12-18T15:40:03;0.20;99.90
42245;DHT22;27912;51.828;5.688;2022-12-18T15:42:29;0.10;99.90
42245;DHT22;27912;51.828;5.688;2022-12-18T15:45:14;0.10;99.90
42245;DHT22;27912;51.828;5.688;2022-12-18T15:47:40;0.10;99.90
42245;DHT22;27912;51.828;5.688;2022-12-18T15:50:07;0.10;99.90
42245;DHT22;27912;51.828;5.688;2022-12-18T15:52:39;0.10;99.90
42245;DHT22;27912;51.828;5.688;2022-12-18T15:55:14;0.00;99.90
42245;DHT22;27912;51.828;5.688;2022-12-18T15:57:58;0.10;99.90
42245;DHT22;27912;51.828;5.688;2022-12-18T16:00:24;0.00;99.90
42245;DHT22;27912;51.828;5.688;2022-12-18T16:02:50;0.10;99.90
42245;DHT22;27912;51.828;5.688;2022-12-18T16:05:17;0.00;99.90
42245;DHT22;27912;51.828;5.688;2022-12-18T16:07:44;0.10;99.90
42245;DHT22;27912;51.828;5.688;2022-12-18T16:10:10;0.00;99.90
42245;DHT22;27912;51.828;5.688;2022-12-18T16:12:36;0.00;99.90
42245;DHT22;27912;51.828;5.688;2022-12-18T16:15:03;0.00;99.90
42245;DHT22;27912;51.828;5.688;2022-12-18T16:17:29;0.00;99.90
42245;DHT22;27912;51.828;5.688;2022-12-18T16:19:55;0.00;99.90
42245;DHT22;27912;51.828;5.688;2022-12-18T16:22:25;0.00;99.90
42245;DHT22;27912;51.828;5.688;2022-12-18T16:24:53;0.00;99.90
42245;DHT22;27912;51.828;5.688;2022-12-18T16:27:19;0.00;99.90
42245;DHT22;27912;51.828;5.688;2022-12-18T16:29:45;-0.10;99.90
42245;DHT22;27912;51.828;5.688;2022-12-18T16:32:19;-0.10;99.90
42245;DHT22;27912;51.828;5.688;2022-12-18T16:34:45;0.00;99.90
42245;DHT22;27912;51.828;5.688;2022-12-18T16:37:12;-0.10;99.90
42245;DHT22;27912;51.828;5.688;2022-12-18T16:39:40;-0.10;99.90
42245;DHT22;27912;51.828;5.688;2022-12-18T16:42:18;0.00;99.90
42245;DHT22;27912;51.828;5.688;2022-12-18T16:44:46;0.00;99.90
42245;DHT22;27912;51.828;5.688;2022-12-18T16:47:12;0.00;99.90
42245;DHT22;27912;51.828;5.688;2022-12-18T16:49:37;-0.10;99.90
42245;DHT22;27912;51.828;5.688;2022-12-18T16:52:04;0.00;99.90
42245;DHT22;27912;51.828;5.688;2022-12-18T16:54:30;0.00;99.90
42245;DHT22;27912;51.828;5.688;2022-12-18T16:56:58;0.00;99.90
42245;DHT22;27912;51.828;5.688;2022-12-18T16:59:26;-0.10;99.90
42245;DHT22;27912;51.828;5.688;2022-12-18T17:01:52;0.00;99.90
42245;DHT22;27912;51.828;5.688;2022-12-18T17:04:19;0.00;99.90
42245;DHT22;27912;51.828;5.688;2022-12-18T17:06:45;0.00;99.90
42245;DHT22;27912;51.828;5.688;2022-12-18T17:09:18;0.00;99.90
42245;DHT22;27912;51.828;5.688;2022-12-18T17:11:51;0.00;99.90
42245;DHT22;27912;51.828;5.688;2022-12-18T17:14:20;0.00;99.90
42245;DHT22;27912;51.828;5.688;2022-12-18T17:16:45;0.10;99.90
42245;DHT22;27912;51.828;5.688;2022-12-18T17:19:12;0.00;99.90
42245;DHT22;27912;51.828;5.688;2022-12-18T17:21:37;0.00;99.90
42245;DHT22;27912;51.828;5.688;2022-12-18T17:24:03;0.10;99.90
42245;DHT22;27912;51.828;5.688;2022-12-18T17:26:29;0.10;99.90
42245;DHT22;27912;51.828;5.688;2022-12-18T17:28:56;0.10;99.90